Flight Briefing for CPX325

Departure Arrival
March Air Reserve Base (KRIV)
Click to view FAA NOTAMS
Fort Worth Alliance Airport (KAFW)
Click to view FAA NOTAMS
Departure Time Arrival Time
N/A N/A
Aircraft Distance
B767-300BDSF 1001nm
Departure METAR Arrival METAR
KRIV 212158Z AUTO 26009G17KT 10SM SCT049 BKN060 18/06 A2983 RMK AO2 SLP097 T01830055 KAFW 212153Z 22016G23KT 10SM FEW070 FEW300 29/09 A2960 RMK AO2 SLP007 T02890089
Suggested Route
TRM J78 ABQ J72 TURKI WESAT2


View recent IFR Routes data
Notes



Charts and Procedures

Charts for KRIV
No chart available
Charts for KAFW
No chart available

Windy.com Weather Map